West Poplarville, Mississippi
Current Conditions -  °F | °C
As of 2:55 AM on Thursday 23 Oct 2014 (Local Time) from KBXA Reporting Station
Haze Haze  
Wind Chill: 47°   Ceiling: NA
Heat Index: 47°   Visibility: 1.5mi
Dew Point: 44°   Wind: 0mph
Humidity: 90%   Direction: NA
Pressure: 30.11"   Gusts: NA
Location:  30.8781°N, 89.5858°W
Report Text: KBXA 230755Z AUTO 00000KT 1 1/2SM BR 09/07 A3011 RMK AO2 VIS 3/4V4 T00850069
Loading
Personal Weather Stations






























Interactive Weather Map
Tropical Storm Tracking
New forecast layout! Learn more

10-Day Weather Forecast

Advertisements
Track Severe Weather on mobile